createdAt,value
2022-10-08T00:00:56.770Z,93376.53
2022-10-08T00:03:29.075Z,93373.56
2022-10-08T00:06:00.365Z,93371.66
2022-10-08T00:08:31.380Z,93366.16
2022-10-08T00:11:05.470Z,93361.28
2022-10-08T00:13:41.046Z,93361.59
2022-10-08T00:16:12.742Z,93356.53
2022-10-08T00:18:42.904Z,93352.81
2022-10-08T00:21:16.734Z,93359.97
2022-10-08T00:23:48.051Z,93353.59
2022-10-08T00:26:23.928Z,93354.34
2022-10-08T00:28:56.028Z,93358.31
2022-10-08T00:31:29.321Z,93358.81
2022-10-08T00:34:01.347Z,93351.50
2022-10-08T00:36:33.270Z,93352.69
2022-10-08T00:39:05.061Z,93353.81
2022-10-08T00:41:38.996Z,93349.97
2022-10-08T00:44:51.055Z,93359.94
2022-10-08T00:47:42.889Z,93353.47
2022-10-08T00:51:46.058Z,93355.94
2022-10-08T00:54:16.411Z,93351.19
2022-10-08T00:56:47.024Z,93354.00
2022-10-08T00:59:17.136Z,93342.78
2022-10-08T01:01:46.745Z,93347.28
2022-10-08T01:04:17.509Z,93353.63
2022-10-08T01:07:00.109Z,93344.09
2022-10-08T01:09:38.291Z,93344.38
2022-10-08T01:12:19.274Z,93343.09
2022-10-08T01:14:56.724Z,93345.72
2022-10-08T01:17:35.466Z,93340.81
2022-10-08T01:20:37.486Z,93345.91
2022-10-08T01:24:12.449Z,93335.88
2022-10-08T01:27:04.630Z,93329.09
2022-10-08T01:29:43.179Z,93332.06
2022-10-08T01:32:21.071Z,93337.63
2022-10-08T01:34:56.190Z,93327.69
2022-10-08T01:37:32.112Z,93330.09
2022-10-08T01:40:06.450Z,93337.16
2022-10-08T01:42:40.249Z,93326.34
2022-10-08T01:45:18.160Z,93331.66
2022-10-08T01:47:49.812Z,93327.94
2022-10-08T01:50:27.328Z,93331.00
2022-10-08T01:53:00.715Z,93330.63
2022-10-08T01:55:35.290Z,93333.50
2022-10-08T01:58:10.128Z,93331.38
2022-10-08T02:00:42.591Z,93328.44
2022-10-08T02:03:12.936Z,93328.81
2022-10-08T02:05:48.434Z,93329.53
2022-10-08T02:08:17.867Z,93334.16
2022-10-08T02:10:47.310Z,93331.41
2022-10-08T02:13:17.033Z,93332.97
2022-10-08T02:15:59.754Z,93330.13
2022-10-08T02:18:39.148Z,93323.75
2022-10-08T02:21:19.152Z,93325.94
2022-10-08T02:23:58.019Z,93326.50
2022-10-08T02:26:35.129Z,93322.19
2022-10-08T02:29:12.387Z,93325.88
2022-10-08T02:31:50.161Z,93326.63
2022-10-08T02:34:27.215Z,93323.38
2022-10-08T02:37:05.058Z,93321.28
2022-10-08T02:39:40.089Z,93320.19
2022-10-08T02:42:13.546Z,93320.38
2022-10-08T02:44:47.650Z,93318.88
2022-10-08T02:47:27.112Z,93312.41
2022-10-08T02:50:02.925Z,93308.63
2022-10-08T02:52:37.143Z,93305.81
2022-10-08T02:55:20.085Z,93318.78
2022-10-08T02:57:54.061Z,93313.34
2022-10-08T03:00:24.251Z,93311.75
2022-10-08T03:03:06.650Z,93310.66
2022-10-08T03:05:40.094Z,93307.97
2022-10-08T03:08:12.086Z,93313.69
2022-10-08T03:10:44.247Z,93310.72
2022-10-08T03:13:15.209Z,93306.28
2022-10-08T03:15:44.875Z,93309.81
2022-10-08T03:18:15.751Z,93307.09
2022-10-08T03:20:47.909Z,93314.13
2022-10-08T03:23:20.532Z,93311.00
2022-10-08T03:25:49.750Z,93308.06
2022-10-08T03:28:19.236Z,93302.69
2022-10-08T03:30:48.866Z,93307.81
2022-10-08T03:33:19.904Z,93302.97
2022-10-08T03:35:50.049Z,93301.44
2022-10-08T03:38:19.437Z,93303.94
2022-10-08T03:40:58.605Z,93310.19
2022-10-08T03:43:34.529Z,93297.56
2022-10-08T03:46:04.760Z,93301.97
2022-10-08T03:48:36.564Z,93303.94
2022-10-08T03:52:42.332Z,93297.22
2022-10-08T03:55:11.863Z,93298.31
2022-10-08T03:57:41.207Z,93295.28
2022-10-08T04:00:12.783Z,93287.41
2022-10-08T04:02:42.149Z,93292.69
2022-10-08T04:05:11.986Z,93290.94
2022-10-08T04:07:43.090Z,93300.06
2022-10-08T04:10:12.669Z,93294.50
2022-10-08T04:12:41.987Z,93293.00
2022-10-08T04:15:12.220Z,93295.59
2022-10-08T04:17:43.024Z,93296.47
2022-10-08T04:20:12.604Z,93285.47
2022-10-08T04:22:43.430Z,93292.94
2022-10-08T04:25:12.907Z,93285.16
2022-10-08T04:27:42.604Z,93285.41
2022-10-08T04:30:13.387Z,93289.66
2022-10-08T04:32:42.933Z,93288.28
2022-10-08T04:35:12.445Z,93279.34
2022-10-08T04:37:43.897Z,93283.75
2022-10-08T04:40:13.518Z,93281.94
2022-10-08T04:42:43.017Z,93280.25
2022-10-08T04:45:12.999Z,93283.59
2022-10-08T04:47:42.407Z,93279.25
2022-10-08T04:50:12.060Z,93284.69
2022-10-08T04:52:42.871Z,93277.97
2022-10-08T04:55:12.622Z,93283.84
2022-10-08T04:57:42.029Z,93278.50
2022-10-08T05:00:18.366Z,93281.78
2022-10-08T05:02:48.741Z,93280.59
2022-10-08T05:05:18.686Z,93283.09
2022-10-08T05:07:49.709Z,93278.84
2022-10-08T05:10:19.903Z,93282.81
2022-10-08T05:12:49.592Z,93284.13
2022-10-08T05:15:19.538Z,93283.03
2022-10-08T05:17:49.016Z,93284.75
2022-10-08T05:20:18.565Z,93280.63
2022-10-08T05:22:49.703Z,93282.66
2022-10-08T05:25:19.339Z,93284.44
2022-10-08T05:27:48.598Z,93283.66
2022-10-08T05:30:21.830Z,93285.31
2022-10-08T05:32:51.513Z,93284.56
2022-10-08T05:35:20.918Z,93291.56
2022-10-08T05:37:51.691Z,93290.00
2022-10-08T05:40:22.368Z,93290.06
2022-10-08T05:42:51.667Z,93293.34
2022-10-08T05:45:21.014Z,93290.69
2022-10-08T05:47:50.731Z,93292.34
2022-10-08T05:50:20.160Z,93292.19
2022-10-08T05:52:51.444Z,93301.47
2022-10-08T05:55:21.993Z,93305.56
2022-10-08T05:57:51.926Z,93303.34
2022-10-08T06:00:21.397Z,93304.00
2022-10-08T06:02:51.992Z,93300.25
2022-10-08T06:05:21.531Z,93303.25
2022-10-08T06:07:53.156Z,93303.50
2022-10-08T06:10:22.568Z,93308.25
2022-10-08T06:12:53.587Z,93310.34
2022-10-08T06:15:22.907Z,93308.06
2022-10-08T06:17:53.353Z,93316.19
2022-10-08T06:20:22.816Z,93314.72
2022-10-08T06:22:54.854Z,93308.94
2022-10-08T06:25:24.215Z,93310.56
2022-10-08T06:27:53.510Z,93306.06
2022-10-08T06:30:22.974Z,93300.81
2022-10-08T06:32:52.290Z,93307.19
2022-10-08T06:35:21.735Z,93319.53
2022-10-08T06:37:51.276Z,93314.59
2022-10-08T06:40:22.351Z,93309.03
2022-10-08T06:42:51.817Z,93312.28
2022-10-08T06:45:21.511Z,93305.50
2022-10-08T06:47:50.984Z,93301.88
2022-10-08T06:52:42.147Z,93293.66
2022-10-08T06:55:11.998Z,93297.28
2022-10-08T06:57:41.337Z,93298.41
2022-10-08T07:00:12.730Z,93295.34
2022-10-08T07:02:42.045Z,93300.41
2022-10-08T07:05:11.830Z,93304.75
2022-10-08T07:07:42.779Z,93306.06
2022-10-08T07:10:16.600Z,93299.88
2022-10-08T07:12:47.877Z,93301.81
2022-10-08T07:15:17.850Z,93296.88
2022-10-08T07:17:47.177Z,93296.25
2022-10-08T07:20:16.805Z,93293.97
2022-10-08T07:22:47.750Z,93296.34
2022-10-08T07:25:17.492Z,93297.75
2022-10-08T07:27:46.812Z,93296.25
2022-10-08T07:30:16.211Z,93291.31
2022-10-08T07:32:45.703Z,93288.25
2022-10-08T07:35:15.388Z,93295.03
2022-10-08T07:37:46.628Z,93294.91
2022-10-08T07:40:16.255Z,93287.97
2022-10-08T07:42:45.911Z,93280.19
2022-10-08T07:45:15.860Z,93294.31
2022-10-08T07:47:45.174Z,93305.41
2022-10-08T07:50:14.677Z,93292.44
2022-10-08T07:52:44.355Z,93291.97
2022-10-08T07:55:15.389Z,93287.34
2022-10-08T07:57:44.911Z,93284.94
2022-10-08T08:00:15.300Z,93291.78
2022-10-08T08:02:44.896Z,93287.56
2022-10-08T08:05:14.492Z,93286.94
2022-10-08T08:07:43.905Z,93288.94
2022-10-08T08:10:14.750Z,93290.34
2022-10-08T08:12:44.417Z,93292.56
2022-10-08T08:15:14.169Z,93280.38
2022-10-08T08:17:43.558Z,93287.38
2022-10-08T08:20:13.111Z,93289.09
2022-10-08T08:22:42.573Z,93289.78
2022-10-08T08:25:13.870Z,93289.78
2022-10-08T08:27:43.293Z,93282.38
2022-10-08T08:30:14.618Z,93287.00
2022-10-08T08:32:44.287Z,93285.72
2022-10-08T08:35:14.182Z,93282.03
2022-10-08T08:37:43.763Z,93283.13
2022-10-08T08:40:14.736Z,93276.19
2022-10-08T08:42:55.399Z,93277.84
2022-10-08T08:45:46.007Z,93278.63
2022-10-08T08:48:22.599Z,93271.16
2022-10-08T08:50:54.907Z,93272.34
2022-10-08T08:53:24.704Z,93265.88
2022-10-08T08:55:59.086Z,93264.53
2022-10-08T08:58:39.375Z,93265.53
2022-10-08T09:01:22.623Z,93273.47
2022-10-08T09:03:55.590Z,93259.38
2022-10-08T09:06:27.287Z,93265.03
2022-10-08T09:09:01.086Z,93255.53
2022-10-08T09:11:32.647Z,93253.22
2022-10-08T09:14:18.299Z,93247.19
2022-10-08T09:16:48.378Z,93244.41
2022-10-08T09:19:17.674Z,93243.16
2022-10-08T09:21:47.224Z,93234.22
2022-10-08T09:24:17.501Z,93239.81
2022-10-08T09:26:48.474Z,93242.53
2022-10-08T09:29:35.117Z,93241.00
2022-10-08T09:32:04.708Z,93232.56
2022-10-08T09:34:34.073Z,93227.44
2022-10-08T09:37:07.714Z,93229.50
2022-10-08T09:39:39.211Z,93227.16
2022-10-08T09:42:18.753Z,93227.06
2022-10-08T09:44:50.494Z,93224.78
2022-10-08T09:47:22.011Z,93216.50
2022-10-08T09:52:44.089Z,93215.94
2022-10-08T09:55:23.380Z,93212.06
2022-10-08T09:58:00.583Z,93214.50
2022-10-08T10:00:35.538Z,93199.13
2022-10-08T10:03:07.974Z,93201.94
2022-10-08T10:05:39.044Z,93188.31
2022-10-08T10:09:01.654Z,93195.13
2022-10-08T10:11:38.514Z,93200.53
2022-10-08T10:14:21.802Z,93189.66
2022-10-08T10:16:59.783Z,93184.56
2022-10-08T10:19:37.609Z,93180.09
2022-10-08T10:22:14.808Z,93177.75
2022-10-08T10:24:57.871Z,93171.19
2022-10-08T10:27:34.703Z,93164.44
2022-10-08T10:30:16.637Z,93160.00
2022-10-08T10:32:52.967Z,93155.84
2022-10-08T10:35:27.306Z,93152.25
2022-10-08T10:38:05.209Z,93150.56
2022-10-08T10:40:42.167Z,93140.63
2022-10-08T10:43:27.163Z,93133.31
2022-10-08T10:46:03.407Z,93139.13
2022-10-08T10:48:32.792Z,93142.44
2022-10-08T10:51:28.233Z,93135.81
2022-10-08T10:54:11.127Z,93139.47
2022-10-08T10:56:50.879Z,93127.53
2022-10-08T10:59:47.592Z,93132.19
2022-10-08T11:02:31.296Z,93119.72
2022-10-08T11:05:13.517Z,93120.03
2022-10-08T11:08:18.206Z,93116.88
2022-10-08T11:11:04.943Z,93110.88
2022-10-08T11:14:05.863Z,93112.00
2022-10-08T11:16:52.628Z,93106.16
2022-10-08T11:19:44.565Z,93095.25
2022-10-08T11:22:24.994Z,93099.66
2022-10-08T11:25:21.392Z,93089.63
2022-10-08T11:28:06.425Z,93082.34
2022-10-08T11:30:48.772Z,93083.69
2022-10-08T11:33:18.252Z,93082.00
2022-10-08T11:36:01.505Z,93071.59
2022-10-08T11:38:39.455Z,93073.06
2022-10-08T11:41:16.431Z,93074.19
2022-10-08T11:43:55.799Z,93065.66
2022-10-08T11:46:31.065Z,93059.09
2022-10-08T11:49:02.816Z,93056.16
2022-10-08T11:51:43.291Z,93053.78
2022-10-08T11:54:26.217Z,93052.44
2022-10-08T11:57:18.225Z,93045.75
2022-10-08T11:59:56.970Z,93045.41
2022-10-08T12:02:32.278Z,93044.47
2022-10-08T12:05:19.326Z,93043.22
2022-10-08T12:07:53.768Z,93033.63
2022-10-08T12:10:35.993Z,93037.91
2022-10-08T12:13:31.565Z,93034.13
2022-10-08T12:16:07.118Z,93037.63
2022-10-08T12:18:55.826Z,93036.16
2022-10-08T12:21:50.473Z,93036.16
2022-10-08T12:24:57.208Z,93031.78
2022-10-08T12:27:42.189Z,93028.13
2022-10-08T12:30:14.343Z,93029.66
2022-10-08T12:32:59.452Z,93021.38
2022-10-08T12:35:33.418Z,93017.72
2022-10-08T12:38:20.734Z,93018.31
2022-10-08T12:41:00.751Z,93017.63
2022-10-08T12:43:42.430Z,93021.16
2022-10-08T12:46:26.880Z,93015.66
2022-10-08T12:49:03.053Z,93012.44
2022-10-08T12:52:42.011Z,93011.69
2022-10-08T12:55:19.369Z,93008.28
2022-10-08T12:57:51.469Z,93008.28
2022-10-08T13:00:25.272Z,93004.97
2022-10-08T13:03:02.862Z,92998.63
2022-10-08T13:05:35.992Z,92995.66
2022-10-08T13:08:30.376Z,93002.53
2022-10-08T13:11:02.493Z,93001.44
2022-10-08T13:13:41.487Z,93006.13
2022-10-08T13:16:14.408Z,93005.09
2022-10-08T13:18:47.013Z,92998.50
2022-10-08T13:21:38.098Z,93001.44
2022-10-08T13:24:37.892Z,92989.84
2022-10-08T13:27:08.499Z,92983.84
2022-10-08T13:29:39.279Z,92991.63
2022-10-08T13:32:22.826Z,92991.03
2022-10-08T13:34:55.372Z,92993.13
2022-10-08T13:37:35.112Z,92991.59
2022-10-08T13:40:19.819Z,92992.72
2022-10-08T13:42:52.153Z,92992.19
2022-10-08T13:45:24.496Z,92992.44
2022-10-08T13:47:55.115Z,92990.81
2022-10-08T13:50:25.345Z,92991.94
2022-10-08T13:52:58.009Z,92989.25
2022-10-08T13:55:30.730Z,92984.53
2022-10-08T13:58:02.965Z,92981.28
2022-10-08T14:00:33.254Z,92983.06
2022-10-08T14:03:02.980Z,92978.41
2022-10-08T14:05:38.496Z,92981.28
2022-10-08T14:08:15.092Z,92977.88
2022-10-08T14:10:46.325Z,92970.13
2022-10-08T14:13:17.006Z,92973.88
2022-10-08T14:15:46.590Z,92968.25
2022-10-08T14:18:16.098Z,92963.66
2022-10-08T14:20:45.409Z,92965.19
2022-10-08T14:23:15.708Z,92965.28
2022-10-08T14:25:46.605Z,92963.41
2022-10-08T14:28:16.133Z,92963.84
2022-10-08T14:30:45.574Z,92966.63
2022-10-08T14:33:15.012Z,92965.78
2022-10-08T14:35:44.315Z,92965.72
2022-10-08T14:38:13.670Z,92969.94
2022-10-08T14:40:44.358Z,92969.13
2022-10-08T14:43:13.712Z,92969.91
2022-10-08T14:45:43.135Z,92964.22
2022-10-08T14:48:13.242Z,92965.81
2022-10-08T14:50:42.492Z,92967.38
2022-10-08T14:53:11.856Z,92965.03
2022-10-08T14:55:54.711Z,92975.19
2022-10-08T14:58:32.601Z,92973.59
2022-10-08T15:01:02.213Z,92975.28
2022-10-08T15:03:31.710Z,92979.63
2022-10-08T15:06:02.008Z,92979.09
2022-10-08T15:08:31.546Z,92981.44
2022-10-08T15:11:04.669Z,92985.34
2022-10-08T15:13:35.692Z,92992.03
2022-10-08T15:16:05.411Z,92993.56
2022-10-08T15:18:34.949Z,92985.56
2022-10-08T15:21:04.534Z,92986.69
2022-10-08T15:23:34.330Z,92981.72
2022-10-08T15:26:07.036Z,92980.34
2022-10-08T15:28:40.774Z,92984.53
2022-10-08T15:31:14.136Z,92983.97
2022-10-08T15:33:45.675Z,92986.31
2022-10-08T15:36:23.218Z,92983.69
2022-10-08T15:38:58.548Z,92984.38
2022-10-08T15:41:28.681Z,92984.06
2022-10-08T15:44:11.086Z,92998.31
2022-10-08T15:46:40.484Z,92995.94
2022-10-08T15:52:45.513Z,93003.53
2022-10-08T15:55:16.313Z,93005.56
2022-10-08T15:57:45.724Z,93005.78
2022-10-08T16:00:16.571Z,93005.03
2022-10-08T16:02:46.209Z,93010.22
2022-10-08T16:05:16.204Z,93008.38
2022-10-08T16:07:46.950Z,93011.63
2022-10-08T16:10:16.327Z,93012.16
2022-10-08T16:12:45.790Z,93013.03
2022-10-08T16:15:15.476Z,93022.31
2022-10-08T16:17:44.757Z,93026.41
2022-10-08T16:20:14.067Z,93028.00
2022-10-08T16:22:43.449Z,93032.53
2022-10-08T16:25:14.430Z,93035.91
2022-10-08T16:27:43.774Z,93035.09
2022-10-08T16:30:14.674Z,93038.47
2022-10-08T16:32:44.154Z,93037.41
2022-10-08T16:35:13.669Z,93038.00
2022-10-08T16:37:43.033Z,93047.28
2022-10-08T16:40:14.303Z,93046.22
2022-10-08T16:42:43.751Z,93042.69
2022-10-08T16:45:13.356Z,93044.31
2022-10-08T16:47:42.836Z,93048.63
2022-10-08T16:50:12.545Z,93047.31
2022-10-08T16:52:42.055Z,93046.72
2022-10-08T16:55:13.443Z,93047.66
2022-10-08T16:57:42.836Z,93052.41
2022-10-08T17:00:14.112Z,93057.16
2022-10-08T17:02:43.543Z,93056.28
2022-10-08T17:05:13.007Z,93064.47
2022-10-08T17:07:42.359Z,93065.66
2022-10-08T17:10:14.189Z,93062.75
2022-10-08T17:12:43.984Z,93068.19
2022-10-08T17:15:13.715Z,93066.78
2022-10-08T17:17:43.016Z,93062.91
2022-10-08T17:20:12.562Z,93070.38
2022-10-08T17:22:42.307Z,93070.47
2022-10-08T17:25:17.375Z,93079.38
2022-10-08T17:27:46.688Z,93076.81
2022-10-08T17:30:17.012Z,93075.59
2022-10-08T17:32:46.690Z,93081.78
2022-10-08T17:35:16.233Z,93073.16
2022-10-08T17:37:45.613Z,93072.66
2022-10-08T17:40:16.704Z,93071.81
2022-10-08T17:42:46.269Z,93070.47
2022-10-08T17:45:16.152Z,93078.75
2022-10-08T17:47:45.483Z,93082.63
2022-10-08T17:50:14.890Z,93082.22
2022-10-08T17:52:44.205Z,93078.47
2022-10-08T17:55:17.057Z,93083.06
2022-10-08T17:57:46.805Z,93082.56
2022-10-08T18:00:17.119Z,93073.72
2022-10-08T18:02:47.689Z,93081.44
2022-10-08T18:05:17.509Z,93078.97
2022-10-08T18:07:47.627Z,93076.34
2022-10-08T18:10:18.768Z,93077.69
2022-10-08T18:12:48.423Z,93085.09
2022-10-08T18:15:18.355Z,93077.50
2022-10-08T18:17:48.091Z,93086.47
2022-10-08T18:20:17.670Z,93090.84
2022-10-08T18:22:47.103Z,93087.41
2022-10-08T18:25:18.327Z,93090.53
2022-10-08T18:27:47.844Z,93082.72
2022-10-08T18:30:17.370Z,93089.03
2022-10-08T18:32:46.861Z,93095.19
2022-10-08T18:35:16.469Z,93090.19
2022-10-08T18:37:47.446Z,93097.28
2022-10-08T18:40:18.332Z,93093.41
2022-10-08T18:42:47.986Z,93090.47
2022-10-08T18:45:17.870Z,93096.28
2022-10-08T18:47:47.150Z,93093.75
2022-10-08T18:52:42.072Z,93097.72
2022-10-08T18:55:12.354Z,93097.19
2022-10-08T18:57:41.922Z,93097.09
2022-10-08T19:00:13.168Z,93098.66
2022-10-08T19:02:42.636Z,93105.63
2022-10-08T19:05:12.049Z,93105.00
2022-10-08T19:07:43.167Z,93103.94
2022-10-08T19:10:12.744Z,93104.47
2022-10-08T19:12:42.097Z,93108.97
2022-10-08T19:15:12.236Z,93110.22
2022-10-08T19:17:41.605Z,93103.09
2022-10-08T19:20:11.690Z,93111.31
2022-10-08T19:22:42.366Z,93115.34
2022-10-08T19:25:11.929Z,93113.09
2022-10-08T19:27:41.242Z,93108.00
2022-10-08T19:30:11.467Z,93114.22
2022-10-08T19:32:40.864Z,93112.97
2022-10-08T19:35:11.204Z,93112.63
2022-10-08T19:37:42.192Z,93111.84
2022-10-08T19:40:12.806Z,93116.34
2022-10-08T19:42:42.229Z,93115.50
2022-10-08T19:45:12.779Z,93108.72
2022-10-08T19:47:42.185Z,93118.28
2022-10-08T19:50:12.095Z,93116.81
2022-10-08T19:52:45.718Z,93121.28
2022-10-08T19:55:18.232Z,93125.66
2022-10-08T19:57:47.616Z,93125.19
2022-10-08T20:00:17.903Z,93127.69
2022-10-08T20:02:47.701Z,93126.97
2022-10-08T20:05:17.646Z,93129.94
2022-10-08T20:07:49.568Z,93122.13
2022-10-08T20:10:19.155Z,93131.63
2022-10-08T20:12:48.776Z,93132.81
2022-10-08T20:15:18.684Z,93128.94
2022-10-08T20:17:48.315Z,93131.63
2022-10-08T20:20:32.313Z,93131.91
2022-10-08T20:23:04.428Z,93132.00
2022-10-08T20:25:33.885Z,93129.69
2022-10-08T20:28:03.341Z,93136.00
2022-10-08T20:30:32.888Z,93127.72
2022-10-08T20:33:02.189Z,93134.13
2022-10-08T20:35:31.397Z,93134.25
2022-10-08T20:38:00.697Z,93134.41
2022-10-08T20:40:32.187Z,93135.25
2022-10-08T20:43:01.463Z,93127.53
2022-10-08T20:45:30.845Z,93119.19
2022-10-08T20:48:00.060Z,93121.97
2022-10-08T20:50:29.364Z,93125.41
2022-10-08T20:52:58.748Z,93123.91
2022-10-08T20:55:28.168Z,93117.22
2022-10-08T20:57:58.918Z,93115.66
2022-10-08T21:00:28.515Z,93122.53
2022-10-08T21:02:57.728Z,93126.97
2022-10-08T21:05:27.396Z,93127.22
2022-10-08T21:07:56.645Z,93122.03
2022-10-08T21:10:25.870Z,93114.34
2022-10-08T21:12:55.229Z,93112.94
2022-10-08T21:15:25.970Z,93114.78
2022-10-08T21:17:55.260Z,93118.50
2022-10-08T21:20:24.920Z,93107.16
2022-10-08T21:22:54.863Z,93109.75
2022-10-08T21:25:24.108Z,93109.13
2022-10-08T21:27:53.440Z,93105.66
2022-10-08T21:30:22.827Z,93103.44
2022-10-08T21:32:53.808Z,93097.41
2022-10-08T21:35:23.070Z,93103.44
2022-10-08T21:37:52.271Z,93112.00
2022-10-08T21:40:21.608Z,93107.53
2022-10-08T21:42:51.134Z,93101.78
2022-10-08T21:45:20.707Z,93107.91
2022-10-08T21:47:50.036Z,93103.72
2022-10-08T21:52:41.490Z,93102.88
2022-10-08T21:55:11.666Z,93100.28
2022-10-08T21:57:41.112Z,93101.84
2022-10-08T22:00:14.527Z,93102.72
2022-10-08T22:02:43.902Z,93096.09
2022-10-08T22:05:13.246Z,93096.94
2022-10-08T22:07:44.093Z,93091.84
2022-10-08T22:10:13.518Z,93093.09
2022-10-08T22:12:43.091Z,93091.53
2022-10-08T22:15:13.236Z,93083.59
2022-10-08T22:17:42.512Z,93084.31
2022-10-08T22:20:12.254Z,93075.69
2022-10-08T22:22:43.171Z,93080.88
2022-10-08T22:25:12.876Z,93074.31
2022-10-08T22:27:42.210Z,93071.97
2022-10-08T22:30:12.816Z,93077.81
2022-10-08T22:32:42.183Z,93074.31
2022-10-08T22:35:12.653Z,93075.13
2022-10-08T22:37:43.479Z,93073.53
2022-10-08T22:40:13.108Z,93071.03
2022-10-08T22:42:42.416Z,93067.00
2022-10-08T22:45:13.238Z,93068.13
2022-10-08T22:47:42.516Z,93068.56
2022-10-08T22:50:12.034Z,93068.56
2022-10-08T22:52:42.867Z,93069.22
2022-10-08T22:55:12.548Z,93072.91
2022-10-08T22:57:42.469Z,93071.22
2022-10-08T23:00:14.226Z,93061.78
2022-10-08T23:02:43.748Z,93060.66
2022-10-08T23:05:13.148Z,93064.03
2022-10-08T23:07:43.889Z,93058.19
2022-10-08T23:10:13.109Z,93049.34
2022-10-08T23:12:42.390Z,93058.19
2022-10-08T23:15:12.356Z,93052.06
2022-10-08T23:17:41.707Z,93056.41
2022-10-08T23:20:11.243Z,93052.88
2022-10-08T23:22:40.527Z,93060.78
2022-10-08T23:25:12.044Z,93061.59
2022-10-08T23:27:41.342Z,93054.75
2022-10-08T23:30:31.314Z,93054.16
2022-10-08T23:33:01.323Z,93049.91
2022-10-08T23:35:30.621Z,93056.28
2022-10-08T23:38:00.077Z,93052.84
2022-10-08T23:40:31.321Z,93048.75
2022-10-08T23:45:54.219Z,93049.88
2022-10-08T23:48:23.735Z,93045.00
2022-10-08T23:50:54.432Z,93039.25
2022-10-08T23:53:24.191Z,93041.16
2022-10-08T23:55:55.012Z,93038.84
2022-10-08T23:58:24.426Z,93040.53
